메인 페이지
METAR-TAF:

METAR-TAF

공항 :

콜카타, 인도

네타지 수바스 찬드라 보스 국제공항

위도: 22-39N, 경도: 088-27E, 고도: 4m

현재 날씨관측

예보는 27분 전, 00:30시(UTC)에 발표되었습니다.
무풍
온도 20°C
습도 78%
기압 1011 hPa
시정: 1600m
박무

METAR: VECC 180030Z 00000KT 1600 BR NSC 20/16 Q1011 NOSIG

시각: 06:27 (00:57 UTC)

예보

예보는 1 시간 57분 전, 23:00시(UTC)에 발표되었습니다.
예보 대상 시간: 18일 00시부터 19일 06시까지 (UTC)
5kt
시정: 1400m
박무
전환 중
18일 03시부터 18일 05시까지 (UTC)
시정: 2200m
연무
전환 중
18일 05시부터 18일 07시까지 (UTC)
시정: 3500m
연기
전환 중
18일 13시부터 18일 15시까지 (UTC)
kt
시정: 2500m
연무
전환 중
18일 23시부터 19일 01시까지 (UTC)
북북서5kt
시정: 1400m
박무
전환 중
19일 03시부터 19일 05시까지 (UTC)
시정: 2200m
연무

TAF: VECC 172300Z 1800/1906 35005KT 1400 BR NSC BECMG 1803/1805 2200 HZ BECMG 1805/1807 3500 FU BECMG 1813/1815 00000KT 2500 HZ BECMG 1823/1901 33005KT 1400 BR BECMG 1903/1905 2200 HZ

4,000개 이상의 공항 관측 자료 및 예보 (METAR 및 TAF 보고).

지도상에서 검색 가능한 기상관측소가 노란 점과 빨간 점으로 표시되어 있습니다.

기상관측소 명을 보려면 표시 위로 마우스를 이동하세요.

날씨 관측과 예보를 보려면 클릭하세요.

지도 변경 : 확대하려면 엑스 표시가 있는 녹색 버튼, 축소하려면 빼기 표시가 있는 녹색 버튼, 다음 페이지의 지도를 보려면 녹색 화살표를 클릭하세요.


METAR-TAF: